Time;durP1;ratioP1;P1;durP2;ratioP2;P2;SDS_P1;SDS_P2;PMS_P1;PMS_P2;Temp;Humidity;BMP_temperature;BMP_pressure;BME280_temperature;BME280_humidity;BME280_pressure;Samples;Min_cycle;Max_cycle;Signal;HPM_P1;HPM_P2
2022/09/18 00:01:26;;;;;;;1.85;0.70;;;8.60;83.90;;;7.17;100.00;95898.44;4996147;28;20045;-69
2022/09/18 00:03:57;;;;;;;2.95;0.85;;;8.60;83.90;;;7.13;100.00;95895.34;4945311;28;20166;-69
2022/09/18 00:06:31;;;;;;;3.15;0.82;;;8.60;83.90;;;7.11;100.00;95899.94;4945612;28;20034;-69
2022/09/18 00:08:58;;;;;;;3.70;0.70;;;8.50;83.80;;;7.05;100.00;95901.44;4964149;28;20041;-69
2022/09/18 00:11:25;;;;;;;4.22;0.80;;;8.40;84.00;;;7.05;100.00;95911.09;4990201;28;20071;-69
2022/09/18 00:13:51;;;;;;;3.00;0.85;;;8.50;84.00;;;7.04;100.00;95906.84;4958778;28;20467;-68
2022/09/18 00:16:19;;;;;;;1.83;0.68;;;8.50;83.70;;;7.05;100.00;95905.84;4973671;28;20561;-69
2022/09/18 00:18:45;;;;;;;3.20;0.73;;;8.40;83.50;;;7.00;100.00;95902.91;4947625;28;20066;-69
2022/09/18 00:21:15;;;;;;;4.22;1.08;;;8.30;83.70;;;6.99;100.00;95909.13;4935823;28;20031;-69
2022/09/18 00:23:41;;;;;;;7.20;1.13;;;8.40;83.90;;;6.95;100.00;95902.63;4987609;28;20120;-69
2022/09/18 00:26:08;;;;;;;7.57;0.90;;;8.30;83.90;;;6.96;100.00;95906.88;4973312;28;20110;-69
2022/09/18 00:28:34;;;;;;;4.22;0.85;;;8.30;83.70;;;6.93;100.00;95909.84;4956722;28;20122;-69
2022/09/18 00:31:28;;;;;;;11.95;1.05;;;8.30;83.60;;;6.91;100.00;95907.38;4986017;28;20122;-69
2022/09/18 00:33:54;;;;;;;2.70;0.70;;;8.30;83.60;;;6.88;100.00;95899.06;4943718;28;20109;-71
2022/09/18 00:36:20;;;;;;;6.95;0.73;;;8.30;83.40;;;6.84;100.00;95898.59;4984182;28;20047;-69
2022/09/18 00:38:46;;;;;;;4.18;0.55;;;8.20;83.40;;;6.85;100.00;95900.22;4946906;28;20046;-69
2022/09/18 00:41:18;;;;;;;5.70;0.80;;;8.20;83.70;;;6.85;100.00;95905.47;5020582;28;20462;-70
2022/09/18 00:43:44;;;;;;;4.68;0.52;;;8.30;83.50;;;6.84;100.00;95901.22;4949226;28;20120;-69
2022/09/18 00:46:30;;;;;;;3.88;0.90;;;8.20;83.30;;;6.86;100.00;95906.28;4953043;28;20043;-69
2022/09/18 00:49:08;;;;;;;7.18;0.80;;;8.30;83.50;;;6.85;100.00;95909.88;4957534;28;20046;-69
2022/09/18 00:51:34;;;;;;;2.17;0.50;;;8.20;83.00;;;6.84;100.00;95905.63;4992834;28;20189;-69
2022/09/18 00:54:36;;;;;;;1.23;0.43;;;8.20;83.00;;;6.86;100.00;95906.28;4991350;28;20028;-69
2022/09/18 00:57:10;;;;;;;3.10;0.57;;;8.20;83.10;;;6.85;100.00;95915.09;4966744;28;20043;-69
2022/09/18 00:59:36;;;;;;;4.57;0.60;;;8.30;82.70;;;6.88;100.00;95909.53;4946265;28;20020;-69
2022/09/18 01:02:02;;;;;;;5.07;0.80;;;8.30;82.60;;;6.92;100.00;95916.03;4954501;28;20073;-69
2022/09/18 01:04:28;;;;;;;2.92;0.63;;;8.40;83.10;;;6.92;100.00;95918.66;5030356;28;20514;-70
2022/09/18 01:07:16;;;;;;;4.05;0.60;;;8.40;83.10;;;6.96;100.00;95922.56;4962893;28;20027;-69
2022/09/18 01:10:29;;;;;;;4.15;0.60;;;8.50;83.00;;;6.98;100.00;95925.81;4981737;28;20031;-70
2022/09/18 01:12:57;;;;;;;2.85;0.60;;;8.50;83.00;;;6.98;100.00;95928.44;4971187;28;20033;-69
2022/09/18 01:15:45;;;;;;;3.72;0.70;;;8.40;82.70;;;6.97;100.00;95929.41;4964791;28;20379;-69
2022/09/18 01:18:45;;;;;;;1.38;0.60;;;8.40;82.90;;;6.99;100.00;95932.66;4950538;28;20457;-69
2022/09/18 01:21:19;;;;;;;3.47;0.60;;;8.50;83.20;;;7.01;100.00;95930.69;5004676;28;20073;-69
2022/09/18 01:24:17;;;;;;;3.72;0.50;;;8.60;83.10;;;7.08;100.00;95936.91;4976157;28;20931;-69
2022/09/18 01:26:58;;;;;;;3.65;0.93;;;8.60;83.00;;;7.10;100.00;95934.09;4963849;28;20057;-69
2022/09/18 01:29:25;;;;;;;1.48;0.60;;;8.60;82.60;;;7.10;100.00;95932.31;4949097;28;20031;-69
2022/09/18 01:32:06;;;;;;;3.55;0.50;;;8.70;82.60;;;7.14;100.00;95936.22;4964860;28;20152;-68
2022/09/18 01:34:53;;;;;;;3.65;0.50;;;8.70;82.40;;;7.14;100.00;95938.81;4977926;28;20041;-69
2022/09/18 01:37:45;;;;;;;0.88;0.25;;;8.70;82.80;;;7.17;100.00;95929.81;4953408;28;20662;-69
2022/09/18 01:40:27;;;;;;;3.38;0.77;;;8.70;82.40;;;7.16;100.00;95929.00;5046744;28;20112;-69
2022/09/18 01:42:55;;;;;;;5.80;0.57;;;8.60;82.50;;;7.18;100.00;95936.66;5040036;28;20036;-69
2022/09/18 01:45:29;;;;;;;4.13;0.57;;;8.70;82.70;;;7.19;100.00;95928.66;4985968;28;20030;-69
2022/09/18 01:48:03;;;;;;;2.92;0.77;;;8.70;82.50;;;7.22;100.00;95933.53;4932455;28;20409;-68
2022/09/18 01:50:31;;;;;;;2.28;0.60;;;8.80;82.50;;;7.24;100.00;95934.22;4947400;28;20079;-69
2022/09/18 01:53:09;;;;;;;1.85;0.40;;;8.80;82.50;;;7.24;100.00;95921.13;4981864;28;20023;-69
2022/09/18 01:55:35;;;;;;;1.42;0.38;;;8.70;82.10;;;7.24;100.00;95926.34;4964973;28;20027;-69
2022/09/18 01:58:07;;;;;;;1.02;0.47;;;8.80;82.50;;;7.22;100.00;95917.84;4971597;28;20034;-70
2022/09/18 02:00:35;;;;;;;2.80;0.45;;;8.70;82.90;;;7.25;100.00;95924.56;4967758;28;20039;-70
2022/09/18 02:03:08;;;;;;;3.90;0.60;;;8.70;82.60;;;7.25;100.00;95922.75;4940252;28;20134;-70
2022/09/18 02:05:45;;;;;;;4.07;0.70;;;8.70;82.80;;;7.26;100.00;95926.19;4978056;28;20053;-70
2022/09/18 02:08:22;;;;;;;2.88;0.57;;;8.70;82.90;;;7.24;100.00;95915.91;4933429;28;20785;-70
2022/09/18 02:10:54;;;;;;;1.52;0.60;;;8.70;82.90;;;7.25;100.00;95917.53;5007625;28;20410;-70
2022/09/18 02:13:24;;;;;;;5.55;0.90;;;8.80;83.10;;;7.27;100.00;95910.31;4968618;28;20035;-70
2022/09/18 02:15:50;;;;;;;4.97;0.68;;;8.80;83.20;;;7.28;100.00;95906.72;4954176;28;20043;-67
2022/09/18 02:18:22;;;;;;;2.70;0.63;;;8.90;83.30;;;7.31;100.00;95911.59;4940347;28;20045;-69
2022/09/18 02:20:48;;;;;;;4.93;0.70;;;8.80;83.40;;;7.33;100.00;95909.63;4999252;28;20050;-69
2022/09/18 02:23:14;;;;;;;3.50;0.70;;;8.90;83.30;;;7.34;100.00;95908.63;4985241;28;20518;-70
2022/09/18 02:25:55;;;;;;;3.00;0.60;;;8.90;83.40;;;7.34;100.00;95906.00;4969610;28;20067;-69
2022/09/18 02:28:22;;;;;;;3.80;0.70;;;8.80;83.40;;;7.38;100.00;95904.66;4960558;28;20037;-69
2022/09/18 02:30:47;;;;;;;2.88;0.80;;;8.90;83.40;;;7.38;100.00;95891.59;4950959;28;20031;-69
2022/09/18 02:33:34;;;;;;;4.15;0.90;;;8.80;83.40;;;7.40;100.00;95893.22;4995650;28;20117;-69
2022/09/18 02:36:39;;;;;;;3.22;0.80;;;8.90;83.40;;;7.43;100.00;95898.09;4962473;28;20031;-69
2022/09/18 02:39:23;;;;;;;3.30;0.95;;;8.90;83.70;;;7.42;100.00;95888.63;4991773;28;20061;-69
2022/09/18 02:42:07;;;;;;;6.32;1.23;;;8.90;83.50;;;7.44;100.00;95889.25;5011793;28;20041;-69
2022/09/18 02:44:46;;;;;;;2.40;0.75;;;8.90;83.50;;;7.45;100.00;95896.09;4969415;28;20072;-70
2022/09/18 02:47:19;;;;;;;2.08;0.60;;;9.00;83.60;;;7.46;100.00;95892.50;4937259;28;20031;-70
2022/09/18 02:50:20;;;;;;;3.83;0.88;;;9.00;83.50;;;7.45;100.00;95889.06;4971132;28;20409;-69
2022/09/18 02:53:09;;;;;;;3.20;0.75;;;8.90;83.70;;;7.47;100.00;95889.75;4981881;28;20039;-69
2022/09/18 02:55:59;;;;;;;3.50;0.95;;;9.10;83.70;;;7.48;100.00;95901.03;4990092;28;20044;-70
2022/09/18 02:58:48;;;;;;;3.45;0.75;;;9.00;83.40;;;7.50;100.00;95888.56;5030763;28;20379;-69
2022/09/18 03:01:14;;;;;;;6.53;1.13;;;9.00;83.40;;;7.51;100.00;95895.44;4972586;28;20032;-69
2022/09/18 03:03:40;;;;;;;5.15;0.73;;;9.00;83.60;;;7.51;100.00;95895.44;4941364;28;20043;-69
2022/09/18 03:06:06;;;;;;;5.75;1.13;;;8.90;83.40;;;7.51;100.00;95893.63;4988639;28;20031;-69
2022/09/18 03:08:32;;;;;;;2.30;0.65;;;9.00;83.50;;;7.54;100.00;95897.69;4955019;28;20480;-70
2022/09/18 03:10:57;;;;;;;3.97;0.98;;;9.00;83.60;;;7.55;100.00;95896.72;5028628;28;20096;-69
2022/09/18 03:13:23;;;;;;;6.20;1.15;;;9.10;83.30;;;7.58;100.00;95891.13;5009671;28;20039;-69
2022/09/18 03:15:49;;;;;;;4.45;1.05;;;9.10;83.30;;;7.61;100.00;95898.63;4967684;28;20042;-69
2022/09/18 03:18:15;;;;;;;4.50;0.95;;;9.20;83.10;;;7.63;100.00;95891.41;4966399;28;20038;-69
2022/09/18 03:20:42;;;;;;;9.40;1.17;;;9.20;83.20;;;7.65;100.00;95897.28;4952131;28;20081;-69
2022/09/18 03:23:09;;;;;;;3.65;0.95;;;9.20;83.20;;;7.67;100.00;95892.69;4991848;28;20042;-69
2022/09/18 03:25:35;;;;;;;3.53;0.73;;;9.20;83.00;;;7.66;100.00;95902.34;4992454;28;20060;-69
2022/09/18 03:28:01;;;;;;;3.53;0.90;;;9.10;83.40;;;7.64;100.00;95895.66;4974151;28;20027;-69
2022/09/18 03:30:27;;;;;;;2.40;0.82;;;9.20;83.20;;;7.68;100.00;95892.50;4967575;28;20046;-69
2022/09/18 03:32:53;;;;;;;4.03;0.70;;;9.20;83.10;;;7.66;100.00;95898.91;4958417;28;20030;-70
2022/09/18 03:35:19;;;;;;;4.47;1.00;;;9.10;83.20;;;7.68;100.00;95896.91;4994729;28;20031;-70
2022/09/18 03:37:44;;;;;;;4.63;0.90;;;9.20;83.40;;;7.70;100.00;95900.19;4974764;28;20510;-69
2022/09/18 03:40:10;;;;;;;4.55;0.98;;;9.30;82.90;;;7.65;100.00;95892.03;5002607;28;20042;-69
2022/09/18 03:42:36;;;;;;;2.67;0.50;;;9.20;83.20;;;7.71;100.00;95893.16;5070576;28;20067;-69
2022/09/18 03:45:02;;;;;;;3.22;0.90;;;9.20;83.10;;;7.73;100.00;95905.09;5017865;28;20042;-69
2022/09/18 03:47:28;;;;;;;6.32;3.50;;;9.30;82.80;;;7.74;100.00;95904.09;4953270;28;20043;-69
2022/09/18 03:49:53;;;;;;;7.03;2.65;;;9.30;82.70;;;7.78;100.00;95907.16;4967914;28;20375;-69
2022/09/18 03:52:19;;;;;;;3.65;1.20;;;9.40;82.60;;;7.80;100.00;95903.38;4975043;28;20039;-69
2022/09/18 03:54:45;;;;;;;5.38;0.90;;;9.40;82.70;;;7.79;100.00;95899.13;5027976;28;20381;-70
2022/09/18 03:57:11;;;;;;;17.15;9.50;;;9.30;82.60;;;7.81;100.00;95897.16;5070058;28;20090;-69
2022/09/18 03:59:36;;;;;;;4.35;1.58;;;9.40;82.40;;;7.82;100.00;95898.78;5071198;28;20048;-69
2022/09/18 04:02:02;;;;;;;7.38;1.80;;;9.40;82.60;;;7.83;100.00;95894.34;5033423;28;20031;-70
2022/09/18 04:04:28;;;;;;;3.75;1.98;;;9.40;82.50;;;7.81;100.00;95902.38;4949389;28;20115;-69
2022/09/18 04:06:54;;;;;;;8.48;4.65;;;9.40;82.30;;;7.82;100.00;95906.63;4971709;28;20108;-70
2022/09/18 04:09:19;;;;;;;3.90;1.20;;;9.40;82.40;;;7.82;100.00;95904.00;4994453;28;20062;-69
2022/09/18 04:11:45;;;;;;;3.70;0.75;;;9.40;82.20;;;7.83;100.00;95894.34;5012380;28;20029;-69
2022/09/18 04:14:11;;;;;;;3.08;0.90;;;9.40;82.30;;;7.81;100.00;95907.63;4964726;28;20069;-69
2022/09/18 04:16:37;;;;;;;5.85;2.28;;;9.30;82.70;;;7.80;100.00;95911.25;4965789;28;20545;-70
2022/09/18 04:19:02;;;;;;;3.90;2.38;;;9.30;83.20;;;7.82;100.00;95909.25;4964962;28;20035;-69
2022/09/18 04:21:28;;;;;;;6.18;1.85;;;9.30;83.20;;;7.80;100.00;95903.38;4975832;28;20541;-69
2022/09/18 04:23:55;;;;;;;5.18;1.35;;;9.30;83.00;;;7.81;100.00;95898.97;4964225;28;20031;-69
2022/09/18 04:26:21;;;;;;;5.45;1.80;;;9.30;82.90;;;7.82;100.00;95904.00;4948499;28;20031;-69
2022/09/18 04:28:46;;;;;;;3.38;1.40;;;9.30;82.70;;;7.81;100.00;95901.56;5007869;28;20614;-69
2022/09/18 04:31:13;;;;;;;7.03;2.90;;;9.30;82.70;;;7.81;100.00;95902.38;5010741;28;20035;-69
2022/09/18 04:33:38;;;;;;;6.30;3.25;;;9.30;82.90;;;7.84;100.00;95916.94;4965670;28;20124;-69
2022/09/18 04:36:04;;;;;;;8.43;1.73;;;9.40;82.60;;;7.86;100.00;95914.94;4973728;28;20506;-69
2022/09/18 04:38:30;;;;;;;4.40;1.25;;;9.40;82.70;;;7.86;100.00;95915.75;5007855;28;20135;-69
2022/09/18 04:40:56;;;;;;;3.65;1.27;;;9.30;82.70;;;7.87;100.00;95917.38;5020061;28;20028;-69
2022/09/18 04:43:22;;;;;;;2.35;0.90;;;9.40;82.80;;;7.88;100.00;95905.91;4995033;28;20035;-69
2022/09/18 04:45:48;;;;;;;2.22;0.93;;;9.40;82.60;;;7.87;100.00;95901.69;4968351;28;20031;-70
2022/09/18 04:48:15;;;;;;;3.90;1.00;;;9.40;82.80;;;7.89;100.00;95902.31;4968049;28;20046;-69
2022/09/18 04:50:41;;;;;;;6.30;0.90;;;9.40;82.40;;;7.90;100.00;95900.50;5005116;28;20031;-69
2022/09/18 04:53:07;;;;;;;3.85;0.90;;;9.40;82.20;;;7.88;100.00;95903.31;4980274;28;20410;-69
2022/09/18 04:55:32;;;;;;;5.13;0.70;;;9.30;82.30;;;7.88;100.00;95908.53;4969450;28;20021;-70
2022/09/18 04:57:58;;;;;;;3.70;0.60;;;9.30;82.30;;;7.88;100.00;95919.00;4982310;28;20035;-69
2022/09/18 05:00:24;;;;;;;1.65;0.57;;;9.40;82.20;;;7.84;100.00;95907.28;4968341;28;20379;-69
2022/09/18 05:02:50;;;;;;;4.65;0.70;;;9.40;82.50;;;7.87;100.00;95916.56;4969551;28;20043;-71
2022/09/18 05:05:16;;;;;;;2.20;0.70;;;9.40;82.30;;;7.89;100.00;95915.41;4982693;28;20035;-70
2022/09/18 05:07:42;;;;;;;4.78;1.00;;;9.40;82.20;;;7.87;100.00;95912.16;4949432;28;20035;-70
2022/09/18 05:10:09;;;;;;;3.45;0.65;;;9.40;82.40;;;7.88;100.00;95921.63;5010194;28;20073;-69
2022/09/18 05:12:38;;;;;;;1.70;0.70;;;9.40;82.50;;;7.88;100.00;95923.44;4950205;28;20511;-69
2022/09/18 05:15:04;;;;;;;4.82;0.90;;;9.40;82.10;;;7.89;100.00;95923.25;4951464;28;20038;-70
2022/09/18 05:17:31;;;;;;;2.42;0.75;;;9.40;82.10;;;7.91;100.00;95918.66;4948548;28;20063;-70
2022/09/18 05:19:57;;;;;;;4.95;0.93;;;9.40;82.10;;;7.89;100.00;95928.50;4988250;28;20048;-69
2022/09/18 05:22:23;;;;;;;3.30;1.25;;;9.40;82.00;;;7.92;100.00;95943.88;5028622;28;20046;-69
2022/09/18 05:24:49;;;;;;;3.95;0.85;;;9.40;82.40;;;7.92;100.00;95941.25;5026666;28;20060;-70
2022/09/18 05:27:15;;;;;;;4.60;0.88;;;9.40;82.50;;;7.93;100.00;95935.03;4966517;28;20099;-71
2022/09/18 05:29:40;;;;;;;5.07;0.90;;;9.60;82.10;;;7.99;100.00;95942.19;4990669;28;20036;-70
2022/09/18 05:32:06;;;;;;;3.40;0.85;;;9.70;82.00;;;8.03;100.00;95939.19;4938043;28;20152;-70
2022/09/18 05:34:32;;;;;;;5.43;1.08;;;9.60;82.00;;;8.07;100.00;95937.84;5007004;28;20108;-70
2022/09/18 05:36:58;;;;;;;6.45;1.38;;;9.70;82.10;;;8.08;100.00;95944.72;4972921;28;20043;-70
2022/09/18 05:39:23;;;;;;;9.02;2.95;;;9.60;82.20;;;8.08;100.00;95940.28;4952145;28;20023;-70
2022/09/18 05:41:52;;;;;;;4.78;1.85;;;9.60;82.60;;;8.08;100.00;95949.97;4970969;28;20101;-70
2022/09/18 05:44:18;;;;;;;4.50;0.98;;;9.60;82.80;;;8.11;100.00;95941.75;4989444;28;20031;-70
2022/09/18 05:46:47;;;;;;;4.65;0.80;;;9.70;82.80;;;8.12;100.00;95943.38;4970287;28;20115;-71
2022/09/18 05:49:14;;;;;;;4.97;1.15;;;9.70;83.00;;;8.11;100.00;95939.13;4966759;28;20384;-71
2022/09/18 05:51:39;;;;;;;4.63;0.80;;;9.70;83.00;;;8.13;100.00;95942.38;4974414;28;20046;-70
2022/09/18 05:54:05;;;;;;;3.17;0.70;;;9.70;82.80;;;8.12;100.00;95930.28;4969301;28;20038;-71
2022/09/18 05:56:31;;;;;;;5.22;0.90;;;9.70;82.80;;;8.13;100.00;95934.50;4965462;28;20054;-68
2022/09/18 05:58:57;;;;;;;4.30;0.90;;;9.70;82.80;;;8.14;100.00;95938.75;4978739;28;20084;-70
2022/09/18 06:01:22;;;;;;;3.80;1.40;;;9.70;82.80;;;8.15;100.00;95940.41;5011990;28;20037;-71
2022/09/18 06:03:53;;;;;;;4.70;1.00;;;9.70;83.20;;;8.14;100.00;95944.81;4964992;28;20096;-69
2022/09/18 06:06:19;;;;;;;4.70;0.80;;;9.60;82.70;;;8.14;100.00;95938.75;4988990;28;20078;-68
2022/09/18 06:08:45;;;;;;;15.57;3.13;;;9.70;82.60;;;8.16;100.00;95947.28;5035086;28;20027;-68
2022/09/18 06:11:11;;;;;;;4.72;2.00;;;9.70;82.50;;;8.18;100.00;95942.69;4974082;28;20058;-68
2022/09/18 06:13:37;;;;;;;4.95;1.10;;;9.70;82.60;;;8.20;100.00;95951.19;4987709;28;20490;-68
2022/09/18 06:16:02;;;;;;;3.83;1.08;;;9.70;82.30;;;8.21;100.00;95948.38;4988185;28;20135;-70
2022/09/18 06:18:28;;;;;;;4.53;1.05;;;9.70;82.80;;;8.24;100.00;95950.63;4981040;28;20042;-68
2022/09/18 06:20:56;;;;;;;4.05;0.80;;;9.80;82.20;;;8.28;100.00;95945.84;5054058;28;20057;-68
2022/09/18 06:23:22;;;;;;;5.07;0.80;;;9.90;81.90;;;8.30;100.00;95949.09;4976324;28;20062;-68
2022/09/18 06:25:54;;;;;;;5.25;1.08;;;9.90;81.90;;;8.35;100.00;95952.03;4949993;28;20038;-67
2022/09/18 06:28:20;;;;;;;4.03;0.90;;;9.90;81.50;;;8.36;100.00;95942.34;4971265;28;20046;-67
2022/09/18 06:30:46;;;;;;;2.42;0.82;;;9.90;81.20;;;8.39;100.00;95953.31;5002049;28;20435;-69
2022/09/18 06:33:11;;;;;;;4.07;1.00;;;10.00;81.50;;;8.43;100.00;95948.53;5028040;28;20024;-68
2022/09/18 06:35:37;;;;;;;4.18;1.00;;;10.10;81.30;;;8.44;100.00;95940.50;5008206;28;20739;-68
2022/09/18 06:38:04;;;;;;;3.78;0.85;;;10.10;81.10;;;8.46;100.00;95935.06;4950437;28;20027;-68
2022/09/18 06:40:30;;;;;;;5.22;1.30;;;10.10;80.90;;;8.53;100.00;95943.81;4952636;28;20419;-67
2022/09/18 06:43:00;;;;;;;3.70;0.77;;;10.10;81.20;;;8.59;100.00;95954.41;4964991;28;20549;-67
2022/09/18 06:45:26;;;;;;;5.53;1.05;;;10.30;81.10;;;8.63;100.00;95960.13;4977993;28;20039;-67
2022/09/18 06:47:55;;;;;;;3.67;1.02;;;10.30;80.50;;;8.66;100.00;95956.31;4949702;28;20049;-67
2022/09/18 06:50:21;;;;;;;7.68;2.45;;;10.30;80.30;;;8.71;100.00;95951.34;4966460;28;20036;-69
2022/09/18 06:52:47;;;;;;;5.80;1.52;;;10.40;80.50;;;8.77;100.00;95961.09;4977768;28;20043;-70
2022/09/18 06:55:15;;;;;;;4.93;1.00;;;10.40;80.50;;;8.80;100.00;95956.31;4966274;28;20063;-70
2022/09/18 06:57:41;;;;;;;4.57;0.93;;;10.50;80.10;;;8.85;100.00;95963.66;4938537;28;20057;-69
2022/09/18 07:00:08;;;;;;;2.53;0.80;;;10.60;79.60;;;8.90;100.00;95950.81;4987465;28;20166;-69
2022/09/18 07:02:34;;;;;;;3.13;0.63;;;10.60;79.40;;;8.96;100.00;95955.31;5025677;28;20035;-69
2022/09/18 07:05:00;;;;;;;4.43;1.23;;;10.60;79.00;;;8.98;100.00;95953.31;4966367;28;20039;-68
2022/09/18 07:07:26;;;;;;;3.58;1.20;;;10.60;79.30;;;9.03;100.00;95964.06;4972162;28;20062;-68
2022/09/18 07:09:52;;;;;;;6.00;1.08;;;10.70;79.50;;;9.06;100.00;95952.44;4980532;28;20502;-68
2022/09/18 07:12:17;;;;;;;6.20;1.20;;;10.60;78.80;;;9.08;100.00;95953.88;4971964;28;20048;-68
2022/09/18 07:14:43;;;;;;;3.75;0.95;;;10.70;79.40;;;9.11;100.00;95969.25;4988309;28;20042;-68
2022/09/18 07:17:10;;;;;;;4.70;1.65;;;10.80;78.80;;;9.14;100.00;95966.25;4966162;28;20034;-67
2022/09/18 07:19:36;;;;;;;3.72;1.23;;;10.80;78.90;;;9.19;100.00;95977.00;4985145;28;20039;-67
2022/09/18 07:22:02;;;;;;;3.05;1.08;;;10.80;79.00;;;9.19;100.00;95969.13;4951710;28;20122;-68
2022/09/18 07:24:28;;;;;;;2.83;0.75;;;10.70;79.00;;;9.21;100.00;95974.19;4980221;28;20066;-69
2022/09/18 07:26:54;;;;;;;3.60;0.70;;;10.80;79.30;;;9.24;100.00;95968.56;5024331;28;20046;-67
2022/09/18 07:29:20;;;;;;;2.03;0.90;;;10.90;79.10;;;9.26;100.00;95968.38;4983027;28;20472;-68
2022/09/18 07:31:46;;;;;;;4.55;0.90;;;10.90;79.20;;;9.26;100.00;95966.56;4972676;28;20027;-68
2022/09/18 07:34:12;;;;;;;4.47;0.90;;;10.80;79.30;;;9.28;100.00;95974.28;4934037;28;20039;-69
2022/09/18 07:36:38;;;;;;;3.80;1.00;;;10.80;78.90;;;9.29;100.00;95975.94;4964816;28;20039;-71
2022/09/18 07:39:04;;;;;;;2.47;0.90;;;10.90;79.70;;;9.30;100.00;95978.38;4982123;28;20541;-72
2022/09/18 07:41:29;;;;;;;4.43;1.05;;;10.80;79.80;;;9.30;100.00;95969.69;5009485;28;20081;-72
2022/09/18 07:43:55;;;;;;;3.47;1.20;;;10.90;80.20;;;9.35;100.00;95969.94;5019135;28;20464;-71
2022/09/18 07:46:21;;;;;;;6.38;1.63;;;11.00;80.30;;;9.34;100.00;95969.13;4981173;28;20034;-67
2022/09/18 07:48:47;;;;;;;4.53;1.10;;;11.00;80.10;;;9.36;100.00;95979.44;4940317;28;20073;-68
2022/09/18 07:51:13;;;;;;;5.10;1.15;;;11.00;80.00;;;9.34;100.00;95974.38;4964448;28;20125;-68
2022/09/18 07:53:39;;;;;;;6.07;1.00;;;10.90;79.60;;;9.33;100.00;95971.94;4949061;28;20046;-68
2022/09/18 07:56:11;;;;;;;3.20;1.42;;;10.90;80.40;;;9.34;100.00;95982.25;4988564;28;20039;-70
2022/09/18 07:58:36;;;;;;;3.67;1.40;;;10.90;80.30;;;9.35;100.00;95985.69;4964471;28;20096;-68
2022/09/18 08:01:03;;;;;;;2.80;0.80;;;10.90;80.60;;;9.32;100.00;95983.44;4948366;28;20039;-68
2022/09/18 08:03:29;;;;;;;2.30;0.98;;;10.80;80.30;;;9.32;100.00;95986.06;4933007;28;20059;-67
2022/09/18 08:05:55;;;;;;;3.83;1.13;;;10.90;80.80;;;9.33;100.00;95987.69;4979219;28;20042;-69
2022/09/18 08:08:21;;;;;;;7.68;1.50;;;11.00;80.10;;;9.35;100.00;95986.50;4950060;28;20109;-68
2022/09/18 08:10:47;;;;;;;4.10;1.30;;;11.10;80.40;;;9.35;100.00;95983.88;5012290;28;20093;-69
2022/09/18 08:13:13;;;;;;;3.72;1.38;;;10.90;80.60;;;9.38;100.00;95993.19;5019019;28;20035;-69
2022/09/18 08:15:40;;;;;;;3.05;1.10;;;11.10;80.70;;;9.42;100.00;95986.56;5013646;28;20039;-69
2022/09/18 08:18:06;;;;;;;2.15;1.00;;;11.10;80.20;;;9.46;100.00;95987.81;4948261;28;20050;-69
2022/09/18 08:20:35;;;;;;;3.63;1.00;;;11.10;80.20;;;9.43;100.00;95988.19;4979895;28;20029;-69
2022/09/18 08:23:07;;;;;;;1.83;0.90;;;11.10;80.10;;;9.47;100.00;95976.31;4990919;28;20081;-69
2022/09/18 08:25:33;;;;;;;2.95;0.90;;;11.10;80.00;;;9.46;100.00;95987.81;5000673;28;20025;-69
2022/09/18 08:28:00;;;;;;;3.33;2.30;;;11.00;80.40;;;9.48;100.00;95977.94;4955429;28;20133;-69
2022/09/18 08:30:26;;;;;;;4.32;1.98;;;11.20;80.90;;;9.56;100.00;95988.34;4990760;28;20038;-69
2022/09/18 08:32:57;;;;;;;7.95;2.67;;;11.20;79.50;;;9.57;100.00;95989.97;4969207;28;20031;-69
2022/09/18 08:35:23;;;;;;;4.60;2.80;;;11.20;80.30;;;9.61;100.00;95991.22;4964949;28;20662;-68
2022/09/18 08:37:49;;;;;;;3.75;2.05;;;11.30;80.40;;;9.65;100.00;95987.22;4988561;28;20253;-69
2022/09/18 08:40:16;;;;;;;3.72;1.40;;;11.20;79.70;;;9.65;100.00;95987.22;4971833;28;20154;-68
2022/09/18 08:43:19;;;;;;;4.28;2.00;;;11.20;80.50;;;9.65;100.00;95999.53;5040666;28;20090;-68
2022/09/18 08:46:04;;;;;;;5.47;3.17;;;11.20;80.20;;;9.68;100.00;95992.09;4986232;28;20039;-68
2022/09/18 08:48:41;;;;;;;5.32;1.80;;;11.40;80.10;;;9.71;100.00;95975.97;4933229;28;20050;-69
2022/09/18 08:51:32;;;;;;;3.17;1.63;;;11.50;80.30;;;9.75;100.00;95982.50;4992567;28;20035;-68
2022/09/18 08:54:26;;;;;;;5.90;1.60;;;11.50;79.70;;;9.79;100.00;95982.94;4949947;28;20040;-69
2022/09/18 08:56:52;;;;;;;4.20;1.40;;;11.50;78.60;;;9.83;100.00;95990.25;4977621;28;20033;-69
2022/09/18 08:59:33;;;;;;;4.03;1.40;;;11.50;79.70;;;9.93;100.00;95989.13;4933109;28;20035;-70
2022/09/18 09:02:41;;;;;;;3.10;1.27;;;11.80;78.90;;;10.01;100.00;95986.38;4949703;28;20097;-67
2022/09/18 09:05:12;;;;;;;2.58;1.23;;;11.70;78.10;;;10.07;100.00;95988.25;4963725;28;20027;-68
2022/09/18 09:08:02;;;;;;;4.57;1.55;;;11.80;78.20;;;10.10;100.00;95999.19;4948279;28;20042;-68
2022/09/18 09:11:02;;;;;;;4.07;1.30;;;11.80;77.70;;;10.11;100.00;95986.88;4980237;28;20518;-68
2022/09/18 09:13:54;;;;;;;3.00;0.73;;;11.70;78.00;;;10.13;100.00;95984.88;4963657;28;20142;-68
2022/09/18 09:16:50;;;;;;;3.28;1.40;;;11.80;77.20;;;10.19;100.00;95989.41;4975206;28;20772;-68
2022/09/18 09:19:20;;;;;;;2.28;1.13;;;11.90;77.60;;;10.25;100.00;95993.09;4967777;28;20038;-68
2022/09/18 09:21:54;;;;;;;6.13;1.30;;;12.00;77.20;;;10.28;100.00;95985.66;4968466;28;20031;-67
2022/09/18 09:24:31;;;;;;;4.68;1.52;;;12.10;77.20;;;10.32;100.00;95984.25;4946386;28;20036;-68
2022/09/18 09:26:57;;;;;;;2.13;1.05;;;11.80;76.40;;;10.33;100.00;95991.16;4949808;28;20517;-67
2022/09/18 09:29:33;;;;;;;5.28;1.23;;;11.90;76.70;;;10.38;100.00;95983.50;4959035;28;20499;-68
2022/09/18 09:32:09;;;;;;;4.05;1.63;;;12.10;76.60;;;10.48;100.00;95988.44;4962155;28;20030;-67
2022/09/18 09:35:04;;;;;;;3.17;1.00;;;12.40;76.30;;;10.61;100.00;95985.06;4956510;28;20406;-68
2022/09/18 09:37:39;;;;;;;4.03;1.20;;;12.50;75.80;;;10.68;100.00;95988.59;4964384;28;20068;-68
2022/09/18 09:40:35;;;;;;;2.67;1.02;;;12.60;75.20;;;10.73;100.00;95986.19;4983716;28;20031;-72
2022/09/18 09:43:35;;;;;;;2.33;0.90;;;12.50;74.90;;;10.77;100.00;95987.41;4950196;28;20113;-72
2022/09/18 09:46:59;;;;;;;6.25;2.65;;;12.50;75.50;;;10.79;100.00;95980.16;4941502;28;20530;-72
2022/09/18 09:49:29;;;;;;;4.18;1.13;;;12.40;75.10;;;10.85;100.00;95987.25;4976824;28;20038;-72
2022/09/18 09:52:23;;;;;;;3.28;0.95;;;12.70;74.80;;;11.00;100.00;95987.97;4981824;28;20032;-72
2022/09/18 09:54:54;;;;;;;2.72;0.77;;;12.90;73.90;;;11.14;100.00;95983.59;4951476;28;20035;-72
2022/09/18 09:57:47;;;;;;;5.05;0.90;;;13.10;72.70;;;11.29;100.00;95976.34;4957973;28;20031;-72
2022/09/18 10:00:16;;;;;;;3.50;1.20;;;13.30;72.00;;;11.44;100.00;95984.13;4995734;28;20042;-72
2022/09/18 10:03:18;;;;;;;2.97;0.75;;;13.60;71.30;;;11.68;100.00;95984.59;4956414;28;20105;-73
2022/09/18 10:06:23;;;;;;;3.97;0.82;;;14.00;69.90;;;11.92;100.00;95982.25;5016517;28;20039;-70
2022/09/18 10:08:53;;;;;;;4.28;0.80;;;14.20;69.40;;;12.01;100.00;95976.81;4962067;28;20529;-74
2022/09/18 10:11:18;;;;;;;2.80;1.20;;;14.10;68.40;;;12.09;100.00;95976.63;4961558;28;20482;-72
2022/09/18 10:13:51;;;;;;;2.55;0.90;;;14.10;67.80;;;12.20;100.00;95981.28;5010374;28;20039;-72
2022/09/18 10:16:38;;;;;;;3.20;1.10;;;14.20;68.10;;;12.27;100.00;95975.03;4944080;28;20046;-74
2022/09/18 10:19:04;;;;;;;2.25;0.80;;;14.20;67.90;;;12.27;100.00;95988.22;4981874;28;20109;-71
2022/09/18 10:21:33;;;;;;;2.97;0.80;;;14.00;67.90;;;12.30;100.00;95988.81;5000159;28;20043;-74
2022/09/18 10:24:11;;;;;;;3.75;1.30;;;14.10;68.10;;;12.25;100.00;95986.78;4916849;28;20439;-73
2022/09/18 10:26:45;;;;;;;3.83;1.13;;;13.80;67.60;;;12.21;100.00;95990.81;4970353;28;20046;-73
2022/09/18 10:29:11;;;;;;;3.53;1.10;;;13.80;68.60;;;12.15;100.00;95987.16;4976805;28;20122;-73
2022/09/18 10:31:52;;;;;;;3.85;1.25;;;13.60;68.20;;;12.05;100.00;95986.75;4964284;28;20043;-69
2022/09/18 10:34:47;;;;;;;2.33;0.77;;;13.40;68.60;;;11.98;100.00;95985.91;4984419;28;20536;-71
2022/09/18 10:37:28;;;;;;;3.10;1.27;;;13.30;69.70;;;11.93;100.00;95993.63;4967999;28;20655;-69
2022/09/18 10:39:58;;;;;;;4.63;1.17;;;13.30;69.20;;;11.80;100.00;95988.34;4981172;28;20043;-68
2022/09/18 10:42:27;;;;;;;3.40;1.20;;;13.10;70.20;;;11.71;100.00;95990.28;5011516;28;20043;-74